Time;durP1;ratioP1;P1;durP2;ratioP2;P2;SDS_P1;SDS_P2;PMS_P1;PMS_P2;Temp;Humidity;BMP_temperature;BMP_pressure;BME280_temperature;BME280_humidity;BME280_pressure;Samples;Min_cycle;Max_cycle;Signal;HPM_P1;HPM_P2
2021/08/25 00:00:14;;;;;;;;;;;;;;;;;;2074618;28;1530;-81
2021/08/25 00:01:16;;;;;;;;;;;;;;;;;;2074893;28;1924;-81
2021/08/25 00:02:17;;;;;;;;;;;;;;;;;;2066488;28;2162;-81
2021/08/25 00:03:19;;;;;;;;;;;;;;;;;;2075434;28;1067;-81
2021/08/25 00:04:20;;;;;;;;;;;;;;;;;;2083221;28;1712;-80
2021/08/25 00:05:22;;;;;;;;;;;;;;;;;;2067262;28;1365;-81
2021/08/25 00:06:24;;;;;;;;;;;;;;;;;;2062125;28;2060;-82
2021/08/25 00:07:27;;;;;;;;;;;;;;;;;;2066610;28;1315;-82
2021/08/25 00:08:29;;;;;;;;;;;;;;;;;;2067192;28;1291;-82
2021/08/25 00:09:29;;;;;;;;;;;;;;;;;;2067127;28;1332;-81
2021/08/25 00:10:33;;;;;;;;;;;;;;;;;;2058857;28;1320;-82
2021/08/25 00:11:34;;;;;;;;;;;;;;;;;;2067163;28;2243;-82
2021/08/25 00:12:36;;;;;;;;;;;;;;;;;;2082821;28;1288;-82
2021/08/25 00:13:37;;;;;;;;;;;;;;;;;;2075380;28;1217;-82
2021/08/25 00:14:39;;;;;;;;;;;;;;;;;;2082871;28;1329;-82
2021/08/25 00:15:43;;;;;;;;;;;;;;;;;;2067238;28;1249;-82
2021/08/25 00:16:43;;;;;;;;;;;;;;;;;;2066857;28;1901;-82
2021/08/25 00:17:45;;;;;;;;;;;;;;;;;;2075113;28;1470;-82
2021/08/25 00:18:46;;;;;;;;;;;;;;;;;;2067015;28;1247;-81
2021/08/25 00:19:48;;;;;;;;;;;;;;;;;;2074690;28;1697;-81
2021/08/25 00:20:49;;;;;;;;;;;;;;;;;;2074575;28;1573;-82
2021/08/25 00:21:53;;;;;;;;;;;;;;;;;;2077220;28;2045;-82
2021/08/25 00:22:55;;;;;;;;;;;;;;;;;;2082615;28;1734;-81
2021/08/25 00:23:56;;;;;;;;;;;;;;;;;;2067047;28;1606;-81
2021/08/25 00:24:58;;;;;;;;;;;;;;;;;;2066842;28;1661;-81
2021/08/25 00:26:00;;;;;;;;;;;;;;;;;;2083551;28;1569;-81
2021/08/25 00:27:03;;;;;;;;;;;;;;;;;;2074355;28;2251;-81
2021/08/25 00:28:05;;;;;;;;;;;;;;;;;;2074787;28;1344;-82
2021/08/25 00:29:06;;;;;;;;;;;;;;;;;;2074655;28;1349;-82
2021/08/25 00:30:08;;;;;;;;;;;;;;;;;;2074906;28;1766;-84
2021/08/25 00:31:09;;;;;;;;;;;;;;;;;;2074776;28;1178;-81
2021/08/25 00:32:11;;;;;;;;;;;;;;;;;;2082774;28;1989;-80
2021/08/25 00:33:12;;;;;;;;;;;;;;;;;;2083435;28;1220;-81
2021/08/25 00:34:14;;;;;;;;;;;;;;;;;;2075129;28;1250;-81
2021/08/25 00:35:15;;;;;;;;;;;;;;;;;;2067498;28;1528;-81
2021/08/25 00:36:17;;;;;;;;;;;;;;;;;;2074438;28;1699;-82
2021/08/25 00:37:18;;;;;;;;;;;;;;;;;;2082657;28;1234;-81
2021/08/25 00:38:19;;;;;;;;;;;;;;;;;;2074759;28;1690;-82
2021/08/25 00:39:20;;;;;;;;;;;;;;;;;;2066947;28;1437;-81
2021/08/25 00:40:22;;;;;;;;;;;;;;;;;;2066851;28;1821;-81
2021/08/25 00:41:24;;;;;;;;;;;;;;;;;;2075105;28;1550;-82
2021/08/25 00:42:27;;;;;;;;;;;;;;;;;;2073622;28;2014;-81
2021/08/25 00:43:28;;;;;;;;;;;;;;;;;;2074896;28;1447;-81
2021/08/25 00:44:30;;;;;;;;;;;;;;;;;;2074808;28;1615;-82
2021/08/25 00:45:30;;;;;;;;;;;;;;;;;;2074659;28;1530;-81
2021/08/25 00:46:33;;;;;;;;;;;;;;;;;;2073469;28;1879;-82
2021/08/25 00:47:34;;;;;;;;;;;;;;;;;;2075000;28;1389;-81
2021/08/25 00:48:36;;;;;;;;;;;;;;;;;;2066584;28;1688;-81
2021/08/25 00:49:38;;;;;;;;;;;;;;;;;;2066446;28;1725;-81
2021/08/25 00:50:39;;;;;;;;;;;;;;;;;;2075037;28;1213;-81
2021/08/25 00:51:44;;;;;;;;;;;;;;;;;;2074462;28;1959;-81
2021/08/25 00:52:45;;;;;;;;;;;;;;;;;;2075020;28;1237;-81
2021/08/25 00:53:46;;;;;;;;;;;;;;;;;;2074568;28;1333;-80
2021/08/25 00:54:49;;;;;;;;;;;;;;;;;;2074798;28;1581;-80
2021/08/25 00:55:50;;;;;;;;;;;;;;;;;;2082603;28;2080;-80
2021/08/25 00:56:54;;;;;;;;;;;;;;;;;;2073961;28;1974;-80
2021/08/25 00:57:54;;;;;;;;;;;;;;;;;;2066989;28;2048;-80
2021/08/25 00:58:56;;;;;;;;;;;;;;;;;;2074792;28;1576;-81
2021/08/25 00:59:57;;;;;;;;;;;;;;;;;;2074592;28;1714;-81
2021/08/25 01:01:03;;;;;;;;;;;;;;;;;;2074177;28;1495;-81
2021/08/25 01:02:08;;;;;;;;;;;;;;;;;;2078395;28;1952;-81
2021/08/25 01:03:13;;;;;;;;;;;;;;;;;;2067651;28;1584;-81
2021/08/25 01:04:18;;;;;;;;;;;;;;;;;;2083299;28;1284;-81
2021/08/25 01:05:20;;;;;;;;;;;;;;;;;;2082543;28;1542;-81
2021/08/25 01:06:22;;;;;;;;;;;;;;;;;;2074565;28;925;-81
2021/08/25 01:07:24;;;;;;;;;;;;;;;;;;2081666;28;2132;-81
2021/08/25 01:08:25;;;;;;;;;;;;;;;;;;2074940;28;1217;-81
2021/08/25 01:09:28;;;;;;;;;;;;;;;;;;2075250;28;1446;-81
2021/08/25 01:10:29;;;;;;;;;;;;;;;;;;2074608;28;1224;-82
2021/08/25 01:11:32;;;;;;;;;;;;;;;;;;2082460;28;1863;-82
2021/08/25 01:12:35;;;;;;;;;;;;;;;;;;2074531;28;1898;-81
2021/08/25 01:13:36;;;;;;;;;;;;;;;;;;2075389;28;923;-81
2021/08/25 01:14:39;;;;;;;;;;;;;;;;;;2066719;28;1303;-81
2021/08/25 01:15:40;;;;;;;;;;;;;;;;;;2058464;28;1284;-80
2021/08/25 01:16:43;;;;;;;;;;;;;;;;;;2059496;28;2118;-82
2021/08/25 01:17:44;;;;;;;;;;;;;;;;;;2058743;28;1646;-81
2021/08/25 01:18:47;;;;;;;;;;;;;;;;;;2074558;28;1670;-81
2021/08/25 01:19:55;;;;;;;;;;;;;;;;;;2074513;28;1378;-81
2021/08/25 01:20:59;;;;;;;;;;;;;;;;;;2066243;28;1761;-81
2021/08/25 01:22:01;;;;;;;;;;;;;;;;;;2070373;28;1911;-82
2021/08/25 01:23:03;;;;;;;;;;;;;;;;;;2074469;28;1222;-81
2021/08/25 01:24:07;;;;;;;;;;;;;;;;;;2074628;28;1755;-84
2021/08/25 01:25:08;;;;;;;;;;;;;;;;;;2082360;28;1537;-81
2021/08/25 01:26:11;;;;;;;;;;;;;;;;;;2074523;28;1624;-82
2021/08/25 01:27:12;;;;;;;;;;;;;;;;;;2066143;28;1987;-82
2021/08/25 01:28:18;;;;;;;;;;;;;;;;;;2074664;28;1618;-82
2021/08/25 01:29:27;;;;;;;;;;;;;;;;;;2074733;28;2080;-81
2021/08/25 01:30:29;;;;;;;;;;;;;;;;;;2075809;28;1640;-81
2021/08/25 01:31:31;;;;;;;;;;;;;;;;;;2074878;28;1287;-81
2021/08/25 01:32:34;;;;;;;;;;;;;;;;;;2074619;28;1915;-81
2021/08/25 01:33:35;;;;;;;;;;;;;;;;;;2066477;28;1186;-81
2021/08/25 01:34:48;;;;;;;;;;;;;;;;;;2074640;28;1487;-81
2021/08/25 01:35:49;;;;;;;;;;;;;;;;;;2068318;28;1236;-82
2021/08/25 01:36:51;;;;;;;;;;;;;;;;;;2066491;28;1241;-81
2021/08/25 01:37:52;;;;;;;;;;;;;;;;;;2074319;28;1317;-81
2021/08/25 01:38:55;;;;;;;;;;;;;;;;;;2074568;28;1382;-81
2021/08/25 01:39:56;;;;;;;;;;;;;;;;;;2074553;28;1057;-81
2021/08/25 01:40:58;;;;;;;;;;;;;;;;;;2075552;28;2078;-82
2021/08/25 01:41:59;;;;;;;;;;;;;;;;;;2081833;28;1858;-81
2021/08/25 01:43:00;;;;;;;;;;;;;;;;;;2074073;28;1678;-81
2021/08/25 01:44:02;;;;;;;;;;;;;;;;;;2074167;28;1513;-82
2021/08/25 01:45:07;;;;;;;;;;;;;;;;;;2074444;28;1252;-81
2021/08/25 01:46:07;;;;;;;;;;;;;;;;;;2074691;28;856;-83
2021/08/25 01:47:09;;;;;;;;;;;;;;;;;;2074297;28;1527;-81
2021/08/25 01:48:10;;;;;;;;;;;;;;;;;;2066476;28;1329;-82
2021/08/25 01:49:12;;;;;;;;;;;;;;;;;;2067963;28;1316;-82
2021/08/25 01:50:13;;;;;;;;;;;;;;;;;;2076228;28;1513;-82
2021/08/25 01:51:15;;;;;;;;;;;;;;;;;;2076284;28;1324;-82
2021/08/25 01:52:16;;;;;;;;;;;;;;;;;;2076072;28;1915;-82
2021/08/25 01:53:18;;;;;;;;;;;;;;;;;;2068194;28;1856;-82
2021/08/25 01:54:19;;;;;;;;;;;;;;;;;;2060207;28;1541;-82
2021/08/25 01:55:21;;;;;;;;;;;;;;;;;;2067760;28;1656;-82
2021/08/25 01:56:22;;;;;;;;;;;;;;;;;;2067697;28;1560;-81
2021/08/25 01:57:24;;;;;;;;;;;;;;;;;;2074799;28;1856;-81
2021/08/25 01:58:25;;;;;;;;;;;;;;;;;;2075818;28;1188;-82
2021/08/25 01:59:26;;;;;;;;;;;;;;;;;;2084413;28;1204;-82
2021/08/25 02:00:29;;;;;;;;;;;;;;;;;;2084224;28;1539;-82
2021/08/25 02:01:31;;;;;;;;;;;;;;;;;;2076328;28;1209;-82
2021/08/25 02:02:32;;;;;;;;;;;;;;;;;;2076029;28;1414;-82
2021/08/25 02:03:33;;;;;;;;;;;;;;;;;;2076497;28;1290;-81
2021/08/25 02:04:37;;;;;;;;;;;;;;;;;;2075533;28;1539;-81
2021/08/25 02:05:38;;;;;;;;;;;;;;;;;;2076262;28;1355;-81
2021/08/25 02:06:40;;;;;;;;;;;;;;;;;;2074303;28;2084;-81
2021/08/25 02:07:40;;;;;;;;;;;;;;;;;;2076301;28;1672;-81
2021/08/25 02:08:42;;;;;;;;;;;;;;;;;;2067852;28;1245;-81
2021/08/25 02:09:45;;;;;;;;;;;;;;;;;;2076395;28;1312;-81
2021/08/25 02:10:47;;;;;;;;;;;;;;;;;;2076105;28;1697;-81
2021/08/25 02:11:47;;;;;;;;;;;;;;;;;;2084369;28;1513;-81
2021/08/25 02:12:49;;;;;;;;;;;;;;;;;;2075583;28;1910;-81
2021/08/25 02:13:50;;;;;;;;;;;;;;;;;;2075746;28;1646;-80
2021/08/25 02:14:52;;;;;;;;;;;;;;;;;;2076171;28;1360;-81
2021/08/25 02:15:54;;;;;;;;;;;;;;;;;;2076201;28;1820;-81
2021/08/25 02:16:56;;;;;;;;;;;;;;;;;;2068007;28;1480;-80
2021/08/25 02:17:56;;;;;;;;;;;;;;;;;;2068089;28;1386;-80
2021/08/25 02:18:58;;;;;;;;;;;;;;;;;;2075273;28;1371;-80
2021/08/25 02:19:59;;;;;;;;;;;;;;;;;;2076239;28;1406;-80
2021/08/25 02:21:01;;;;;;;;;;;;;;;;;;2076029;28;1586;-81
2021/08/25 02:22:02;;;;;;;;;;;;;;;;;;2075850;28;1852;-81
2021/08/25 02:23:04;;;;;;;;;;;;;;;;;;2076046;28;1551;-81
2021/08/25 02:24:06;;;;;;;;;;;;;;;;;;2084478;28;1802;-81
2021/08/25 02:25:08;;;;;;;;;;;;;;;;;;2075980;28;1657;-81
2021/08/25 02:26:16;;;;;;;;;;;;;;;;;;2083829;28;1262;-81
2021/08/25 02:27:17;;;;;;;;;;;;;;;;;;2076331;28;1891;-81
2021/08/25 02:28:18;;;;;;;;;;;;;;;;;;2075903;28;1387;-81
2021/08/25 02:29:20;;;;;;;;;;;;;;;;;;2075971;28;1456;-80
2021/08/25 02:30:21;;;;;;;;;;;;;;;;;;2075350;28;1293;-80
2021/08/25 02:31:25;;;;;;;;;;;;;;;;;;2075989;28;1244;-80
2021/08/25 02:32:26;;;;;;;;;;;;;;;;;;2083561;28;1983;-81
2021/08/25 02:33:28;;;;;;;;;;;;;;;;;;2084180;28;1731;-81
2021/08/25 02:34:29;;;;;;;;;;;;;;;;;;2075837;28;1250;-81
2021/08/25 02:35:31;;;;;;;;;;;;;;;;;;2075679;28;1274;-81
2021/08/25 02:36:32;;;;;;;;;;;;;;;;;;2075468;28;1868;-82
2021/08/25 02:37:34;;;;;;;;;;;;;;;;;;2076257;28;1335;-81
2021/08/25 02:38:35;;;;;;;;;;;;;;;;;;2067756;28;1560;-82
2021/08/25 02:39:37;;;;;;;;;;;;;;;;;;2067834;28;1314;-82
2021/08/25 02:40:37;;;;;;;;;;;;;;;;;;2067585;28;1334;-81
2021/08/25 02:41:39;;;;;;;;;;;;;;;;;;2068745;28;2066;-82
2021/08/25 02:42:40;;;;;;;;;;;;;;;;;;2075318;28;1250;-82
2021/08/25 02:43:42;;;;;;;;;;;;;;;;;;2075481;28;1476;-81
2021/08/25 02:44:44;;;;;;;;;;;;;;;;;;2083922;28;1128;-81
2021/08/25 02:45:46;;;;;;;;;;;;;;;;;;2084259;28;1320;-82
2021/08/25 02:46:48;;;;;;;;;;;;;;;;;;2077717;28;1886;-82
2021/08/25 02:47:50;;;;;;;;;;;;;;;;;;2075443;28;1229;-82
2021/08/25 02:48:50;;;;;;;;;;;;;;;;;;2067398;28;1484;-82
2021/08/25 02:49:52;;;;;;;;;;;;;;;;;;2067964;28;1442;-82
2021/08/25 02:50:53;;;;;;;;;;;;;;;;;;2067633;28;1319;-81
2021/08/25 02:51:55;;;;;;;;;;;;;;;;;;2070821;28;1861;-82
2021/08/25 02:52:56;;;;;;;;;;;;;;;;;;2075131;28;1918;-82
2021/08/25 02:53:58;;;;;;;;;;;;;;;;;;2083014;28;1360;-82
2021/08/25 02:54:59;;;;;;;;;;;;;;;;;;2067655;28;1206;-82
2021/08/25 02:56:01;;;;;;;;;;;;;;;;;;2067812;28;1547;-82
2021/08/25 02:57:02;;;;;;;;;;;;;;;;;;2082593;28;1922;-82
2021/08/25 02:58:04;;;;;;;;;;;;;;;;;;2067287;28;1272;-82
2021/08/25 02:59:04;;;;;;;;;;;;;;;;;;2059107;28;1193;-82
2021/08/25 03:00:07;;;;;;;;;;;;;;;;;;2068168;28;1597;-81
2021/08/25 03:01:09;;;;;;;;;;;;;;;;;;2075058;28;1553;-82
2021/08/25 03:02:12;;;;;;;;;;;;;;;;;;2067462;28;1248;-82
2021/08/25 03:03:13;;;;;;;;;;;;;;;;;;2067954;28;1358;-82
2021/08/25 03:04:15;;;;;;;;;;;;;;;;;;2075591;28;1215;-82
2021/08/25 03:05:18;;;;;;;;;;;;;;;;;;2067634;28;1378;-81
2021/08/25 03:06:19;;;;;;;;;;;;;;;;;;2067206;28;1655;-82
2021/08/25 03:07:21;;;;;;;;;;;;;;;;;;2075695;28;1244;-81
2021/08/25 03:08:21;;;;;;;;;;;;;;;;;;2067580;28;1213;-82
2021/08/25 03:09:23;;;;;;;;;;;;;;;;;;2067253;28;1316;-81
2021/08/25 03:10:24;;;;;;;;;;;;;;;;;;2075585;28;1334;-82
2021/08/25 03:11:26;;;;;;;;;;;;;;;;;;2072465;28;1458;-82
2021/08/25 03:12:27;;;;;;;;;;;;;;;;;;2074689;28;2417;-82
2021/08/25 03:13:28;;;;;;;;;;;;;;;;;;2075606;28;1898;-81
2021/08/25 03:14:29;;;;;;;;;;;;;;;;;;2075294;28;1503;-81
2021/08/25 03:15:33;;;;;;;;;;;;;;;;;;2075669;28;1363;-81
2021/08/25 03:16:34;;;;;;;;;;;;;;;;;;2075289;28;1989;-82
2021/08/25 03:17:37;;;;;;;;;;;;;;;;;;2075338;28;1343;-82
2021/08/25 03:18:38;;;;;;;;;;;;;;;;;;2083840;28;878;-81
2021/08/25 03:19:39;;;;;;;;;;;;;;;;;;2083806;28;1300;-81
2021/08/25 03:20:40;;;;;;;;;;;;;;;;;;2075023;28;1560;-82
2021/08/25 03:21:42;;;;;;;;;;;;;;;;;;2075437;28;1367;-82
2021/08/25 03:22:43;;;;;;;;;;;;;;;;;;2083876;28;835;-82
2021/08/25 03:23:44;;;;;;;;;;;;;;;;;;2083294;28;1686;-82
2021/08/25 03:24:45;;;;;;;;;;;;;;;;;;2074907;28;1237;-81
2021/08/25 03:25:47;;;;;;;;;;;;;;;;;;2075637;28;1938;-82
2021/08/25 03:26:48;;;;;;;;;;;;;;;;;;2069468;28;2066;-82
2021/08/25 03:27:51;;;;;;;;;;;;;;;;;;2075322;28;1423;-82
2021/08/25 03:28:53;;;;;;;;;;;;;;;;;;2075548;28;1224;-81
2021/08/25 03:29:55;;;;;;;;;;;;;;;;;;2075636;28;1327;-81
2021/08/25 03:30:57;;;;;;;;;;;;;;;;;;2082841;28;1509;-81
2021/08/25 03:31:59;;;;;;;;;;;;;;;;;;2074927;28;2135;-81
2021/08/25 03:33:05;;;;;;;;;;;;;;;;;;2074920;28;1914;-81
2021/08/25 03:34:07;;;;;;;;;;;;;;;;;;2076324;28;1203;-81
2021/08/25 03:35:08;;;;;;;;;;;;;;;;;;2083289;28;1470;-80
2021/08/25 03:36:10;;;;;;;;;;;;;;;;;;2083546;28;1360;-81
2021/08/25 03:37:11;;;;;;;;;;;;;;;;;;2074905;28;1672;-80
2021/08/25 03:38:13;;;;;;;;;;;;;;;;;;2075273;28;1758;-81
2021/08/25 03:39:13;;;;;;;;;;;;;;;;;;2075126;28;1517;-81
2021/08/25 03:40:15;;;;;;;;;;;;;;;;;;2075079;28;1707;-82
2021/08/25 03:41:16;;;;;;;;;;;;;;;;;;2075146;28;1157;-81
2021/08/25 03:42:18;;;;;;;;;;;;;;;;;;2075247;28;1253;-82
2021/08/25 03:43:18;;;;;;;;;;;;;;;;;;2075336;28;1327;-81
2021/08/25 03:44:20;;;;;;;;;;;;;;;;;;2075488;28;1453;-82
2021/08/25 03:45:21;;;;;;;;;;;;;;;;;;2075447;28;1340;-82
2021/08/25 03:46:23;;;;;;;;;;;;;;;;;;2075036;28;1276;-82
2021/08/25 03:47:24;;;;;;;;;;;;;;;;;;2074823;28;2058;-82
2021/08/25 03:48:27;;;;;;;;;;;;;;;;;;2075266;28;1362;-82
2021/08/25 03:49:28;;;;;;;;;;;;;;;;;;2075523;28;1495;-82
2021/08/25 03:50:30;;;;;;;;;;;;;;;;;;2075189;28;1224;-82
2021/08/25 03:51:33;;;;;;;;;;;;;;;;;;2066990;28;1912;-81
2021/08/25 03:52:33;;;;;;;;;;;;;;;;;;2066837;28;1680;-81
2021/08/25 03:53:37;;;;;;;;;;;;;;;;;;2075304;28;2070;-81
2021/08/25 03:54:37;;;;;;;;;;;;;;;;;;2074865;28;1373;-81
2021/08/25 03:55:39;;;;;;;;;;;;;;;;;;2067420;28;1568;-81
2021/08/25 03:56:40;;;;;;;;;;;;;;;;;;2067092;28;1541;-82
2021/08/25 03:57:44;;;;;;;;;;;;;;;;;;2066867;28;1308;-83
2021/08/25 03:58:45;;;;;;;;;;;;;;;;;;2074981;28;1530;-83
2021/08/25 03:59:48;;;;;;;;;;;;;;;;;;2074975;28;1324;-83
2021/08/25 04:00:52;;;;;;;;;;;;;;;;;;2075212;28;1202;-83
2021/08/25 04:01:53;;;;;;;;;;;;;;;;;;2070336;28;1922;-82
2021/08/25 04:02:55;;;;;;;;;;;;;;;;;;2067286;28;1230;-83
2021/08/25 04:04:00;;;;;;;;;;;;;;;;;;2066851;28;1186;-83
2021/08/25 04:05:01;;;;;;;;;;;;;;;;;;2067372;28;1324;-83
2021/08/25 04:06:03;;;;;;;;;;;;;;;;;;2074939;28;1222;-83
2021/08/25 04:07:04;;;;;;;;;;;;;;;;;;2070868;28;2109;-82
2021/08/25 04:08:06;;;;;;;;;;;;;;;;;;2066888;28;1309;-82
2021/08/25 04:09:07;;;;;;;;;;;;;;;;;;2067236;28;1248;-82
2021/08/25 04:10:09;;;;;;;;;;;;;;;;;;2067197;28;1288;-83
2021/08/25 04:11:11;;;;;;;;;;;;;;;;;;2069357;28;2024;-82
2021/08/25 04:12:12;;;;;;;;;;;;;;;;;;2074812;28;1351;-83
2021/08/25 04:13:14;;;;;;;;;;;;;;;;;;2058909;28;1922;-83
2021/08/25 04:14:15;;;;;;;;;;;;;;;;;;2059396;28;1316;-83
2021/08/25 04:15:18;;;;;;;;;;;;;;;;;;2067279;28;1246;-82
2021/08/25 04:16:19;;;;;;;;;;;;;;;;;;2059171;28;1340;-83
2021/08/25 04:17:21;;;;;;;;;;;;;;;;;;2058643;28;1340;-82
2021/08/25 04:18:22;;;;;;;;;;;;;;;;;;2066830;28;1197;-83
2021/08/25 04:19:25;;;;;;;;;;;;;;;;;;2066770;28;1310;-82
2021/08/25 04:20:26;;;;;;;;;;;;;;;;;;2059555;28;1342;-82
2021/08/25 04:21:28;;;;;;;;;;;;;;;;;;2067165;28;1311;-82
2021/08/25 04:22:29;;;;;;;;;;;;;;;;;;2074693;28;2050;-82
2021/08/25 04:23:31;;;;;;;;;;;;;;;;;;2075047;28;1335;-81
2021/08/25 04:24:32;;;;;;;;;;;;;;;;;;2075134;28;1185;-82
2021/08/25 04:25:34;;;;;;;;;;;;;;;;;;2075214;28;1276;-82
2021/08/25 04:26:34;;;;;;;;;;;;;;;;;;2074738;28;1295;-83
2021/08/25 04:27:36;;;;;;;;;;;;;;;;;;2074564;28;1375;-82
2021/08/25 04:28:37;;;;;;;;;;;;;;;;;;2074443;28;1249;-81
2021/08/25 04:29:39;;;;;;;;;;;;;;;;;;2083385;28;1085;-82
2021/08/25 04:30:40;;;;;;;;;;;;;;;;;;2082850;28;1542;-82
2021/08/25 04:31:45;;;;;;;;;;;;;;;;;;2075113;28;1500;-82
2021/08/25 04:32:45;;;;;;;;;;;;;;;;;;2075514;28;1488;-81
2021/08/25 04:33:47;;;;;;;;;;;;;;;;;;2074680;28;1977;-82
2021/08/25 04:34:50;;;;;;;;;;;;;;;;;;2083059;28;1330;-82
2021/08/25 04:35:52;;;;;;;;;;;;;;;;;;2083018;28;1276;-82
2021/08/25 04:36:53;;;;;;;;;;;;;;;;;;2074581;28;2244;-82
2021/08/25 04:37:54;;;;;;;;;;;;;;;;;;2082786;28;1494;-81
2021/08/25 04:38:55;;;;;;;;;;;;;;;;;;2074794;28;1626;-83
2021/08/25 04:39:57;;;;;;;;;;;;;;;;;;2075018;28;1348;-83
2021/08/25 04:40:58;;;;;;;;;;;;;;;;;;2075033;28;1354;-83
2021/08/25 04:42:00;;;;;;;;;;;;;;;;;;2083093;28;1288;-82
2021/08/25 04:43:02;;;;;;;;;;;;;;;;;;2074792;28;1306;-84
2021/08/25 04:44:05;;;;;;;;;;;;;;;;;;2075081;28;1433;-83
2021/08/25 04:45:06;;;;;;;;;;;;;;;;;;2075368;28;1344;-83
2021/08/25 04:46:08;;;;;;;;;;;;;;;;;;2075057;28;1373;-84
2021/08/25 04:47:09;;;;;;;;;;;;;;;;;;2074730;28;1347;-83
2021/08/25 04:48:11;;;;;;;;;;;;;;;;;;2077130;28;1259;-84
2021/08/25 04:49:12;;;;;;;;;;;;;;;;;;2071582;28;1337;-83
2021/08/25 04:50:15;;;;;;;;;;;;;;;;;;2078121;28;1408;-83
2021/08/25 04:51:18;;;;;;;;;;;;;;;;;;2076181;28;1405;-84
2021/08/25 04:52:19;;;;;;;;;;;;;;;;;;2078355;28;2137;-82
2021/08/25 04:53:22;;;;;;;;;;;;;;;;;;2079830;28;1910;-83
2021/08/25 04:54:22;;;;;;;;;;;;;;;;;;2079146;28;1508;-82
2021/08/25 04:55:24;;;;;;;;;;;;;;;;;;2087078;28;1594;-83
2021/08/25 04:56:25;;;;;;;;;;;;;;;;;;2074638;28;1209;-83
2021/08/25 04:57:27;;;;;;;;;;;;;;;;;;2082524;28;1288;-82
2021/08/25 04:58:28;;;;;;;;;;;;;;;;;;2082937;28;1382;-83
2021/08/25 04:59:30;;;;;;;;;;;;;;;;;;2066582;28;1229;-83
2021/08/25 05:00:30;;;;;;;;;;;;;;;;;;2074148;28;1327;-83
2021/08/25 05:01:32;;;;;;;;;;;;;;;;;;2082869;28;1255;-83
2021/08/25 05:02:34;;;;;;;;;;;;;;;;;;2074716;28;1198;-83
2021/08/25 05:03:36;;;;;;;;;;;;;;;;;;2082783;28;1365;-83
2021/08/25 05:04:40;;;;;;;;;;;;;;;;;;2075078;28;1472;-90
2021/08/25 05:05:43;;;;;;;;;;;;;;;;;;2075076;28;1508;-84
2021/08/25 05:06:44;;;;;;;;;;;;;;;;;;2082789;28;1310;-84
2021/08/25 05:07:46;;;;;;;;;;;;;;;;;;2075050;28;1396;-84
2021/08/25 05:08:48;;;;;;;;;;;;;;;;;;2075230;28;1251;-85
2021/08/25 05:09:50;;;;;;;;;;;;;;;;;;2082936;28;1296;-84
2021/08/25 05:10:51;;;;;;;;;;;;;;;;;;2074307;28;2056;-85
2021/08/25 05:11:55;;;;;;;;;;;;;;;;;;2078314;28;959;-84
2021/08/25 05:12:57;;;;;;;;;;;;;;;;;;2083057;28;1293;-85
2021/08/25 05:13:59;;;;;;;;;;;;;;;;;;2066835;28;1953;-84
2021/08/25 05:15:00;;;;;;;;;;;;;;;;;;2066756;28;1442;-85
2021/08/25 05:16:02;;;;;;;;;;;;;;;;;;2074472;28;1315;-85
2021/08/25 05:17:03;;;;;;;;;;;;;;;;;;2075076;28;1290;-84
2021/08/25 05:18:06;;;;;;;;;;;;;;;;;;2074625;28;1225;-84
2021/08/25 05:19:08;;;;;;;;;;;;;;;;;;2075558;28;1509;-85
2021/08/25 05:20:13;;;;;;;;;;;;;;;;;;2066908;28;1208;-85
2021/08/25 05:21:17;;;;;;;;;;;;;;;;;;2067464;28;1335;-86
2021/08/25 05:22:18;;;;;;;;;;;;;;;;;;2074687;28;1376;-86
2021/08/25 05:23:22;;;;;;;;;;;;;;;;;;2075236;28;1194;-86
2021/08/25 05:24:23;;;;;;;;;;;;;;;;;;2074478;28;1340;-85
2021/08/25 05:25:25;;;;;;;;;;;;;;;;;;2067163;28;1522;-86
2021/08/25 05:26:27;;;;;;;;;;;;;;;;;;2066641;28;1264;-84
2021/08/25 05:27:28;;;;;;;;;;;;;;;;;;2065981;28;1403;-85
2021/08/25 05:28:30;;;;;;;;;;;;;;;;;;2066127;28;1419;-84
2021/08/25 05:29:31;;;;;;;;;;;;;;;;;;2066506;28;1234;-84
2021/08/25 05:30:33;;;;;;;;;;;;;;;;;;2066868;28;1318;-84
2021/08/25 05:31:34;;;;;;;;;;;;;;;;;;2066904;28;1241;-84
2021/08/25 05:32:36;;;;;;;;;;;;;;;;;;2066592;28;1375;-84
2021/08/25 05:33:37;;;;;;;;;;;;;;;;;;2066944;28;1975;-84
2021/08/25 05:34:38;;;;;;;;;;;;;;;;;;2066746;28;1296;-84
2021/08/25 05:35:39;;;;;;;;;;;;;;;;;;2075061;28;1499;-84
2021/08/25 05:36:43;;;;;;;;;;;;;;;;;;2066552;28;1256;-84
2021/08/25 05:37:44;;;;;;;;;;;;;;;;;;2074749;28;1418;-84
2021/08/25 05:38:46;;;;;;;;;;;;;;;;;;2074428;28;1257;-84
2021/08/25 05:39:47;;;;;;;;;;;;;;;;;;2066284;28;1399;-84
2021/08/25 05:40:49;;;;;;;;;;;;;;;;;;2073700;28;1462;-85
2021/08/25 05:41:50;;;;;;;;;;;;;;;;;;2082884;28;1374;-84
2021/08/25 05:42:52;;;;;;;;;;;;;;;;;;2082570;28;1286;-83
2021/08/25 05:43:53;;;;;;;;;;;;;;;;;;2074331;28;1313;-83
2021/08/25 05:44:55;;;;;;;;;;;;;;;;;;2082249;28;1228;-84
2021/08/25 05:45:57;;;;;;;;;;;;;;;;;;2074236;28;1234;-84
2021/08/25 05:46:58;;;;;;;;;;;;;;;;;;2074322;28;1294;-84
2021/08/25 05:48:00;;;;;;;;;;;;;;;;;;2075032;28;1204;-84
2021/08/25 05:49:01;;;;;;;;;;;;;;;;;;2074643;28;1370;-84
2021/08/25 05:50:03;;;;;;;;;;;;;;;;;;2074795;28;1292;-84
2021/08/25 05:51:06;;;;;;;;;;;;;;;;;;2074034;28;1359;-84
2021/08/25 05:52:08;;;;;;;;;;;;;;;;;;2069196;28;2042;-86
2021/08/25 05:53:10;;;;;;;;;;;;;;;;;;2074415;28;1305;-84
2021/08/25 05:54:13;;;;;;;;;;;;;;;;;;2066348;28;1918;-84
2021/08/25 05:55:15;;;;;;;;;;;;;;;;;;2067092;28;1305;-85
2021/08/25 05:56:16;;;;;;;;;;;;;;;;;;2074577;28;1371;-84
2021/08/25 05:57:18;;;;;;;;;;;;;;;;;;2074396;28;1240;-84
2021/08/25 05:58:19;;;;;;;;;;;;;;;;;;2074088;28;1269;-85
2021/08/25 05:59:21;;;;;;;;;;;;;;;;;;2074231;28;1333;-84
2021/08/25 06:00:23;;;;;;;;;;;;;;;;;;2074664;28;1279;-84
2021/08/25 06:01:24;;;;;;;;;;;;;;;;;;2074389;28;1232;-84
2021/08/25 06:02:26;;;;;;;;;;;;;;;;;;2074505;28;1310;-84
2021/08/25 06:03:27;;;;;;;;;;;;;;;;;;2065957;28;1358;-83
2021/08/25 06:04:29;;;;;;;;;;;;;;;;;;2066010;28;1360;-84
2021/08/25 06:05:30;;;;;;;;;;;;;;;;;;2066265;28;1348;-84
2021/08/25 06:06:34;;;;;;;;;;;;;;;;;;2073979;28;1217;-85
2021/08/25 06:07:37;;;;;;;;;;;;;;;;;;2066233;28;1367;-84
2021/08/25 06:08:40;;;;;;;;;;;;;;;;;;2067192;28;1240;-84
2021/08/25 06:09:42;;;;;;;;;;;;;;;;;;2066765;28;1432;-83
2021/08/25 06:10:43;;;;;;;;;;;;;;;;;;2066239;28;1300;-83
2021/08/25 06:11:45;;;;;;;;;;;;;;;;;;2081366;28;1499;-83
2021/08/25 06:12:45;;;;;;;;;;;;;;;;;;2074313;28;1318;-83
2021/08/25 06:13:47;;;;;;;;;;;;;;;;;;2072840;28;1910;-83
2021/08/25 06:14:48;;;;;;;;;;;;;;;;;;2074422;28;1428;-83
2021/08/25 06:15:50;;;;;;;;;;;;;;;;;;2074105;28;1211;-83
2021/08/25 06:16:51;;;;;;;;;;;;;;;;;;2074473;28;1333;-83
2021/08/25 06:17:53;;;;;;;;;;;;;;;;;;2066103;28;1308;-83
2021/08/25 06:18:54;;;;;;;;;;;;;;;;;;2073945;28;1469;-83
2021/08/25 06:19:56;;;;;;;;;;;;;;;;;;2074686;28;1334;-83
2021/08/25 06:20:58;;;;;;;;;;;;;;;;;;2074086;28;1315;-83
2021/08/25 06:22:00;;;;;;;;;;;;;;;;;;2082617;28;1406;-83
2021/08/25 06:23:03;;;;;;;;;;;;;;;;;;2074073;28;1228;-83
2021/08/25 06:24:05;;;;;;;;;;;;;;;;;;2074204;28;1341;-83
2021/08/25 06:25:07;;;;;;;;;;;;;;;;;;2074192;28;1259;-83
2021/08/25 06:26:10;;;;;;;;;;;;;;;;;;2082629;28;858;-83
2021/08/25 06:27:11;;;;;;;;;;;;;;;;;;2082189;28;1216;-82
2021/08/25 06:28:13;;;;;;;;;;;;;;;;;;2074057;28;1345;-83
2021/08/25 06:29:14;;;;;;;;;;;;;;;;;;2082421;28;1317;-82
2021/08/25 06:30:16;;;;;;;;;;;;;;;;;;2065441;28;1384;-83
2021/08/25 06:31:18;;;;;;;;;;;;;;;;;;2066400;28;2095;-83
2021/08/25 06:32:20;;;;;;;;;;;;;;;;;;2074440;28;1314;-83
2021/08/25 06:33:22;;;;;;;;;;;;;;;;;;2075301;28;1249;-88
2021/08/25 06:34:23;;;;;;;;;;;;;;;;;;2075433;28;1922;-89
2021/08/25 06:35:28;;;;;;;;;;;;;;;;;;2084594;28;962;-88
2021/08/25 06:36:30;;;;;;;;;;;;;;;;;;2084172;28;1212;-91
2021/08/25 06:37:32;;;;;;;;;;;;;;;;;;2060525;28;1173;-91
2021/08/25 06:38:35;;;;;;;;;;;;;;;;;;2068093;28;1457;-90
2021/08/25 06:39:37;;;;;;;;;;;;;;;;;;2083261;28;1321;-91
2021/08/25 06:40:38;;;;;;;;;;;;;;;;;;2076005;28;1335;-90
2021/08/25 06:41:39;;;;;;;;;;;;;;;;;;2084228;28;1435;-90
2021/08/25 06:42:40;;;;;;;;;;;;;;;;;;2075778;28;1392;-91
2021/08/25 06:43:42;;;;;;;;;;;;;;;;;;2083738;28;1381;-90
2021/08/25 06:44:44;;;;;;;;;;;;;;;;;;2084145;28;1195;-89
2021/08/25 06:45:45;;;;;;;;;;;;;;;;;;2076766;28;1423;-86
2021/08/25 06:46:47;;;;;;;;;;;;;;;;;;2075656;28;1674;-87
2021/08/25 06:47:48;;;;;;;;;;;;;;;;;;2075760;28;1530;-86
2021/08/25 06:48:49;;;;;;;;;;;;;;;;;;2083298;28;1409;-86
2021/08/25 06:49:51;;;;;;;;;;;;;;;;;;2084267;28;1499;-86
2021/08/25 06:50:53;;;;;;;;;;;;;;;;;;2075745;28;1539;-87
2021/08/25 06:51:53;;;;;;;;;;;;;;;;;;2075979;28;1701;-89
2021/08/25 06:52:55;;;;;;;;;;;;;;;;;;2081870;28;1413;-92
2021/08/25 06:53:59;;;;;;;;;;;;;;;;;;2068033;28;1910;-93
2021/08/25 06:55:01;;;;;;;;;;;;;;;;;;2068099;28;1223;-92
2021/08/25 06:56:02;;;;;;;;;;;;;;;;;;2071705;28;1382;-93
2021/08/25 06:57:05;;;;;;;;;;;;;;;;;;2076022;28;1306;-92
2021/08/25 06:58:06;;;;;;;;;;;;;;;;;;2084548;28;1294;-90
2021/08/25 06:59:07;;;;;;;;;;;;;;;;;;2083963;28;1337;-89
2021/08/25 07:00:10;;;;;;;;;;;;;;;;;;2075973;28;1298;-86
2021/08/25 07:01:11;;;;;;;;;;;;;;;;;;2076301;28;1240;-89
2021/08/25 07:02:18;;;;;;;;;;;;;;;;;;2083159;28;2128;-89
2021/08/25 07:03:20;;;;;;;;;;;;;;;;;;2076632;28;1366;-85
2021/08/25 07:04:21;;;;;;;;;;;;;;;;;;2075897;28;1271;-85
2021/08/25 07:05:23;;;;;;;;;;;;;;;;;;2075426;28;1325;-85
2021/08/25 07:06:24;;;;;;;;;;;;;;;;;;2074962;28;1216;-85
2021/08/25 07:07:25;;;;;;;;;;;;;;;;;;2084023;28;1404;-85
2021/08/25 07:08:27;;;;;;;;;;;;;;;;;;2075393;28;1193;-84
2021/08/25 07:09:31;;;;;;;;;;;;;;;;;;2075418;28;1240;-84